sensor_id;sensor_type;location;lat;lon;timestamp;pressure;altitude;pressure_sealevel;temperature;humidity
13594;BME280;6449;47.666;9.160;2022-12-29T04:50:20;96840.47;;;6.53;100.00
13594;BME280;6449;47.666;9.160;2022-12-29T04:55:14;96840.59;;;6.51;100.00
13594;BME280;6449;47.666;9.160;2022-12-29T05:00:11;96841.78;;;6.32;100.00
13594;BME280;6449;47.666;9.160;2022-12-29T05:05:06;96845.69;;;6.24;100.00
13594;BME280;6449;47.666;9.160;2022-12-29T05:10:01;96843.16;;;6.23;100.00
13594;BME280;6449;47.666;9.160;2022-12-29T05:14:54;96834.13;;;6.14;100.00
13594;BME280;6449;47.666;9.160;2022-12-29T05:19:47;96835.50;;;6.06;100.00
13594;BME280;6449;47.666;9.160;2022-12-29T05:24:41;96847.22;;;5.98;100.00
13594;BME280;6449;47.666;9.160;2022-12-29T05:29:35;96839.66;;;5.94;100.00
13594;BME280;6449;47.666;9.160;2022-12-29T05:34:29;96855.41;;;5.91;100.00
13594;BME280;6449;47.666;9.160;2022-12-29T05:39:22;96859.41;;;5.82;100.00
13594;BME280;6449;47.666;9.160;2022-12-29T06:03:54;96841.53;;;5.76;100.00
13594;BME280;6449;47.666;9.160;2022-12-29T06:09:56;96844.22;;;5.74;100.00
13594;BME280;6449;47.666;9.160;2022-12-29T10:16:38;96887.38;;;8.95;100.00
13594;BME280;6449;47.666;9.160;2022-12-29T11:40:01;96823.56;;;9.10;100.00
13594;BME280;6449;47.666;9.160;2022-12-29T11:44:56;96814.28;;;9.30;100.00
13594;BME280;6449;47.666;9.160;2022-12-29T11:49:54;96802.66;;;9.58;100.00
13594;BME280;6449;47.666;9.160;2022-12-29T11:54:48;96797.63;;;9.43;100.00
13594;BME280;6449;47.666;9.160;2022-12-29T14:55:40;96715.09;;;9.27;100.00
13594;BME280;6449;47.666;9.160;2022-12-29T15:00:36;96714.41;;;9.25;100.00
13594;BME280;6449;47.666;9.160;2022-12-29T15:05:41;96737.09;;;9.24;100.00
13594;BME280;6449;47.666;9.160;2022-12-29T15:10:45;96731.41;;;9.30;100.00
13594;BME280;6449;47.666;9.160;2022-12-29T15:15:43;96741.75;;;9.32;100.00
13594;BME280;6449;47.666;9.160;2022-12-29T15:20:37;96737.41;;;9.32;100.00
13594;BME280;6449;47.666;9.160;2022-12-29T15:25:31;96743.53;;;9.31;100.00
13594;BME280;6449;47.666;9.160;2022-12-29T15:30:26;96746.63;;;9.25;100.00
13594;BME280;6449;47.666;9.160;2022-12-29T15:35:28;96733.31;;;9.28;100.00
13594;BME280;6449;47.666;9.160;2022-12-29T15:40:25;96747.78;;;9.21;100.00
13594;BME280;6449;47.666;9.160;2022-12-29T15:45:20;96740.00;;;9.32;100.00
13594;BME280;6449;47.666;9.160;2022-12-29T15:50:23;96732.94;;;9.22;100.00
13594;BME280;6449;47.666;9.160;2022-12-29T15:55:25;96759.03;;;9.34;100.00
13594;BME280;6449;47.666;9.160;2022-12-29T16:00:24;96773.59;;;9.26;100.00
13594;BME280;6449;47.666;9.160;2022-12-29T16:05:20;96782.69;;;9.33;100.00
13594;BME280;6449;47.666;9.160;2022-12-29T16:10:27;96777.56;;;9.31;100.00
13594;BME280;6449;47.666;9.160;2022-12-29T16:15:25;96765.66;;;9.27;100.00
13594;BME280;6449;47.666;9.160;2022-12-29T16:20:25;96756.41;;;9.10;100.00
13594;BME280;6449;47.666;9.160;2022-12-29T16:25:28;96753.69;;;9.12;100.00
13594;BME280;6449;47.666;9.160;2022-12-29T16:30:26;96761.38;;;9.02;100.00
13594;BME280;6449;47.666;9.160;2022-12-29T16:35:27;96756.25;;;9.01;100.00
13594;BME280;6449;47.666;9.160;2022-12-29T16:40:28;96746.72;;;9.00;100.00
13594;BME280;6449;47.666;9.160;2022-12-29T16:46:16;96745.16;;;8.97;100.00
13594;BME280;6449;47.666;9.160;2022-12-29T16:51:17;96749.56;;;8.97;100.00
13594;BME280;6449;47.666;9.160;2022-12-29T16:56:16;96749.13;;;9.03;100.00
13594;BME280;6449;47.666;9.160;2022-12-29T17:01:10;96759.06;;;8.98;100.00
13594;BME280;6449;47.666;9.160;2022-12-29T17:06:14;96755.63;;;8.97;100.00
13594;BME280;6449;47.666;9.160;2022-12-29T17:11:23;96751.84;;;9.01;100.00
13594;BME280;6449;47.666;9.160;2022-12-29T17:30:10;96756.84;;;9.04;100.00
13594;BME280;6449;47.666;9.160;2022-12-29T17:35:05;96754.16;;;9.06;100.00
13594;BME280;6449;47.666;9.160;2022-12-29T17:39:58;96754.75;;;9.09;100.00
13594;BME280;6449;47.666;9.160;2022-12-29T18:31:34;96720.00;;;8.59;100.00
13594;BME280;6449;47.666;9.160;2022-12-29T18:36:29;96729.06;;;8.66;100.00
13594;BME280;6449;47.666;9.160;2022-12-29T18:46:39;96730.63;;;8.56;100.00
13594;BME280;6449;47.666;9.160;2022-12-29T18:51:32;96731.47;;;8.57;100.00
13594;BME280;6449;47.666;9.160;2022-12-29T18:56:26;96725.66;;;8.53;100.00
13594;BME280;6449;47.666;9.160;2022-12-29T19:01:22;96718.06;;;8.37;100.00
13594;BME280;6449;47.666;9.160;2022-12-29T19:06:18;96726.59;;;8.39;100.00
13594;BME280;6449;47.666;9.160;2022-12-29T19:11:13;96747.69;;;8.49;100.00
13594;BME280;6449;47.666;9.160;2022-12-29T19:48:59;96713.94;;;8.33;100.00
13594;BME280;6449;47.666;9.160;2022-12-29T20:01:06;96710.81;;;8.41;100.00
13594;BME280;6449;47.666;9.160;2022-12-29T20:06:01;96704.88;;;8.39;100.00
13594;BME280;6449;47.666;9.160;2022-12-29T20:11:01;96701.09;;;8.30;100.00
13594;BME280;6449;47.666;9.160;2022-12-29T22:15:35;96798.56;;;8.05;100.00
